createdAt,value
2022-10-31T00:00:17.649Z,402.00
2022-10-31T00:00:47.745Z,401.00
2022-10-31T00:01:17.718Z,405.00
2022-10-31T00:01:47.802Z,405.00
2022-10-31T00:02:17.871Z,403.00
2022-10-31T00:02:47.885Z,406.00
2022-10-31T00:03:17.916Z,405.00
2022-10-31T00:03:47.946Z,405.00
2022-10-31T00:04:17.971Z,405.00
2022-10-31T00:04:47.995Z,403.00
2022-10-31T00:05:18.021Z,401.00
2022-10-31T00:05:48.043Z,402.00
2022-10-31T00:06:18.073Z,401.00
2022-10-31T00:06:48.094Z,400.00
2022-10-31T00:07:18.149Z,402.00
2022-10-31T00:07:48.194Z,402.00
2022-10-31T00:08:18.223Z,401.00
2022-10-31T00:08:48.244Z,400.00
2022-10-31T00:09:18.283Z,400.00
2022-10-31T00:09:48.297Z,399.00
2022-10-31T00:10:18.319Z,400.00
2022-10-31T00:10:48.347Z,400.00
2022-10-31T00:11:18.375Z,399.00
2022-10-31T00:11:48.394Z,401.00
2022-10-31T00:12:18.415Z,402.00
2022-10-31T00:12:48.439Z,402.00
2022-10-31T00:13:18.546Z,403.00
2022-10-31T00:13:48.565Z,404.00
2022-10-31T00:14:18.578Z,404.00
2022-10-31T00:14:48.604Z,404.00
2022-10-31T00:15:18.634Z,405.00
2022-10-31T00:15:48.658Z,406.00
2022-10-31T00:16:18.769Z,405.00
2022-10-31T00:16:48.910Z,404.00
2022-10-31T00:17:18.894Z,405.00
2022-10-31T00:17:49.002Z,404.00
2022-10-31T00:18:19.112Z,404.00
2022-10-31T00:18:49.227Z,403.00
2022-10-31T00:19:19.335Z,403.00
2022-10-31T00:19:49.443Z,402.00
2022-10-31T00:20:19.551Z,401.00
2022-10-31T00:20:49.667Z,400.00
2022-10-31T00:21:19.777Z,399.00
2022-10-31T00:21:49.892Z,401.00
2022-10-31T00:22:20.002Z,400.00
2022-10-31T00:22:50.137Z,401.00
2022-10-31T00:23:20.130Z,401.00
2022-10-31T00:23:50.246Z,403.00
2022-10-31T00:24:20.354Z,405.00
2022-10-31T00:24:50.461Z,405.00
2022-10-31T00:25:20.576Z,404.00
2022-10-31T00:25:50.690Z,405.00
2022-10-31T00:26:20.714Z,405.00
2022-10-31T00:26:50.737Z,407.00
2022-10-31T00:27:20.766Z,406.00
2022-10-31T00:27:50.827Z,405.00
2022-10-31T00:28:20.953Z,407.00
2022-10-31T00:28:50.948Z,407.00
2022-10-31T00:29:20.980Z,407.00
2022-10-31T00:29:50.992Z,407.00
2022-10-31T00:30:21.029Z,408.00
2022-10-31T00:30:51.041Z,408.00
2022-10-31T00:31:21.079Z,406.00
2022-10-31T00:31:51.103Z,403.00
2022-10-31T00:32:21.140Z,403.00
2022-10-31T00:32:51.181Z,403.00
2022-10-31T00:33:21.234Z,404.00
2022-10-31T00:33:51.274Z,403.00
2022-10-31T00:34:21.317Z,402.00
2022-10-31T00:34:51.329Z,402.00
2022-10-31T00:35:21.359Z,403.00
2022-10-31T00:35:51.371Z,403.00
2022-10-31T00:36:21.403Z,403.00
2022-10-31T00:36:51.419Z,402.00
2022-10-31T00:37:21.515Z,402.00
2022-10-31T00:37:51.539Z,399.00
2022-10-31T00:38:21.555Z,399.00
2022-10-31T00:38:51.615Z,401.00
2022-10-31T00:39:21.672Z,402.00
2022-10-31T00:39:51.707Z,403.00
2022-10-31T00:40:21.720Z,404.00
2022-10-31T00:40:51.750Z,405.00
2022-10-31T00:41:21.780Z,404.00
2022-10-31T00:41:51.800Z,404.00
2022-10-31T00:42:21.847Z,405.00
2022-10-31T00:42:51.977Z,404.00
2022-10-31T00:43:21.873Z,403.00
2022-10-31T00:43:51.936Z,401.00
2022-10-31T00:44:21.931Z,401.00
2022-10-31T00:44:51.954Z,399.00
2022-10-31T00:45:22.004Z,398.00
2022-10-31T00:45:52.001Z,399.00
2022-10-31T00:46:22.031Z,400.00
2022-10-31T00:46:52.048Z,400.00
2022-10-31T00:47:22.086Z,400.00
2022-10-31T00:47:52.114Z,399.00
2022-10-31T00:48:22.139Z,397.00
2022-10-31T00:48:52.167Z,396.00
2022-10-31T00:49:22.195Z,398.00
2022-10-31T00:49:52.236Z,398.00
2022-10-31T00:50:22.254Z,398.00
2022-10-31T00:50:52.282Z,399.00
2022-10-31T00:51:22.314Z,398.00
2022-10-31T00:51:52.335Z,400.00
2022-10-31T00:52:22.361Z,399.00
2022-10-31T00:52:52.403Z,400.00
2022-10-31T00:53:22.426Z,401.00
2022-10-31T00:53:52.464Z,401.00
2022-10-31T00:54:22.478Z,402.00
2022-10-31T00:54:52.516Z,401.00
2022-10-31T00:55:22.540Z,400.00
2022-10-31T00:55:52.570Z,399.00
2022-10-31T00:56:22.589Z,398.00
2022-10-31T00:56:52.614Z,398.00
2022-10-31T00:57:22.645Z,398.00
2022-10-31T00:57:52.715Z,396.00
2022-10-31T00:58:22.750Z,396.00
2022-10-31T00:58:52.775Z,394.00
2022-10-31T00:59:22.834Z,397.00
2022-10-31T00:59:52.864Z,397.00
2022-10-31T01:00:22.859Z,399.00
2022-10-31T01:00:52.949Z,399.00
2022-10-31T01:01:23.092Z,398.00
2022-10-31T01:01:53.178Z,397.00
2022-10-31T01:02:23.248Z,395.00
2022-10-31T01:02:53.190Z,395.00
2022-10-31T01:03:23.215Z,396.00
2022-10-31T01:03:53.245Z,395.00
2022-10-31T01:04:23.279Z,397.00
2022-10-31T01:04:53.302Z,397.00
2022-10-31T01:05:23.402Z,399.00
2022-10-31T01:05:53.431Z,398.00
2022-10-31T01:06:23.451Z,398.00
2022-10-31T01:06:53.492Z,399.00
2022-10-31T01:07:23.517Z,399.00
2022-10-31T01:07:53.545Z,399.00
2022-10-31T01:08:23.577Z,401.00
2022-10-31T01:08:53.596Z,401.00
2022-10-31T01:09:23.622Z,402.00
2022-10-31T01:09:53.648Z,402.00
2022-10-31T01:10:23.673Z,402.00
2022-10-31T01:10:53.701Z,401.00
2022-10-31T01:11:23.724Z,403.00
2022-10-31T01:11:53.758Z,402.00
2022-10-31T01:12:23.774Z,401.00
2022-10-31T01:12:53.802Z,400.00
2022-10-31T01:13:23.845Z,398.00
2022-10-31T01:13:53.852Z,398.00
2022-10-31T01:14:23.881Z,397.00
2022-10-31T01:14:53.921Z,399.00
2022-10-31T01:15:23.939Z,399.00
2022-10-31T01:15:53.945Z,400.00
2022-10-31T01:16:24.062Z,402.00
2022-10-31T01:16:54.176Z,401.00
2022-10-31T01:17:24.182Z,401.00
2022-10-31T01:17:54.306Z,402.00
2022-10-31T01:18:24.303Z,403.00
2022-10-31T01:18:54.419Z,404.00
2022-10-31T01:19:24.523Z,403.00
2022-10-31T01:19:54.637Z,402.00
2022-10-31T01:20:24.748Z,403.00
2022-10-31T01:20:54.862Z,403.00
2022-10-31T01:21:24.970Z,403.00
2022-10-31T01:21:55.085Z,403.00
2022-10-31T01:22:25.197Z,403.00
2022-10-31T01:22:55.312Z,400.00
2022-10-31T01:23:25.302Z,400.00
2022-10-31T01:23:55.413Z,399.00
2022-10-31T01:24:25.525Z,400.00
2022-10-31T01:24:55.639Z,400.00
2022-10-31T01:25:25.754Z,400.00
2022-10-31T01:25:55.745Z,399.00
2022-10-31T01:26:25.775Z,399.00
2022-10-31T01:26:55.798Z,399.00
2022-10-31T01:27:25.829Z,400.00
2022-10-31T01:27:55.898Z,401.00
2022-10-31T01:28:55.885Z,403.00
2022-10-31T01:29:25.912Z,401.00
2022-10-31T01:29:55.959Z,400.00
2022-10-31T01:30:25.961Z,399.00
2022-10-31T01:30:55.986Z,400.00
2022-10-31T01:31:26.009Z,402.00
2022-10-31T01:31:56.034Z,402.00
2022-10-31T01:32:26.057Z,401.00
2022-10-31T01:32:56.205Z,401.00
2022-10-31T01:33:26.102Z,401.00
2022-10-31T01:33:56.118Z,402.00
2022-10-31T01:34:26.144Z,402.00
2022-10-31T01:34:56.165Z,402.00
2022-10-31T01:35:26.187Z,403.00
2022-10-31T01:35:56.209Z,401.00
2022-10-31T01:36:26.238Z,401.00
2022-10-31T01:36:56.259Z,402.00
2022-10-31T01:37:26.282Z,405.00
2022-10-31T01:37:56.314Z,404.00
2022-10-31T01:38:26.339Z,403.00
2022-10-31T01:38:56.366Z,403.00
2022-10-31T01:39:26.389Z,403.00
2022-10-31T01:39:56.415Z,403.00
2022-10-31T01:40:26.437Z,402.00
2022-10-31T01:40:56.480Z,401.00
2022-10-31T01:41:26.484Z,400.00
2022-10-31T01:41:56.511Z,399.00
2022-10-31T01:42:26.532Z,401.00
2022-10-31T01:42:56.823Z,400.00
2022-10-31T01:43:26.576Z,400.00
2022-10-31T01:43:56.599Z,400.00
2022-10-31T01:44:26.623Z,400.00
2022-10-31T01:44:56.644Z,400.00
2022-10-31T01:45:26.691Z,399.00
2022-10-31T01:45:56.687Z,400.00
2022-10-31T01:46:26.711Z,402.00
2022-10-31T01:46:56.759Z,401.00
2022-10-31T01:47:26.758Z,401.00
2022-10-31T01:47:57.016Z,398.00
2022-10-31T01:48:26.894Z,398.00
2022-10-31T01:48:56.926Z,399.00
2022-10-31T01:49:26.944Z,401.00
2022-10-31T01:49:56.971Z,403.00
2022-10-31T01:50:26.997Z,403.00
2022-10-31T01:50:57.014Z,402.00
2022-10-31T01:51:27.039Z,404.00
2022-10-31T01:51:57.059Z,403.00
2022-10-31T01:52:27.093Z,403.00
2022-10-31T01:52:57.113Z,403.00
2022-10-31T01:53:27.232Z,401.00
2022-10-31T01:53:57.254Z,400.00
2022-10-31T01:54:27.272Z,401.00
2022-10-31T01:54:57.293Z,402.00
2022-10-31T01:55:30.050Z,402.00
2022-10-31T01:55:57.402Z,402.00
2022-10-31T01:56:27.435Z,400.00
2022-10-31T01:56:57.566Z,401.00
2022-10-31T01:57:27.476Z,402.00
2022-10-31T01:57:57.812Z,403.00
2022-10-31T01:58:27.533Z,403.00
2022-10-31T01:58:57.550Z,404.00
2022-10-31T01:59:27.566Z,402.00
2022-10-31T01:59:57.596Z,401.00
2022-10-31T02:00:27.618Z,402.00
2022-10-31T02:00:59.587Z,401.00
2022-10-31T02:01:27.808Z,401.00
2022-10-31T02:01:57.899Z,400.00
2022-10-31T02:02:27.980Z,401.00
2022-10-31T02:02:58.342Z,401.00
2022-10-31T02:03:28.012Z,401.00
2022-10-31T02:03:58.038Z,401.00
2022-10-31T02:04:28.062Z,402.00
2022-10-31T02:04:58.081Z,405.00
2022-10-31T02:05:28.102Z,407.00
2022-10-31T02:05:58.135Z,406.00
2022-10-31T02:06:28.156Z,404.00
2022-10-31T02:06:58.177Z,403.00
2022-10-31T02:07:28.206Z,403.00
2022-10-31T02:07:58.229Z,403.00
2022-10-31T02:08:28.257Z,402.00
2022-10-31T02:08:58.278Z,402.00
2022-10-31T02:09:28.335Z,402.00
2022-10-31T02:09:58.349Z,403.00
2022-10-31T02:10:28.377Z,403.00
2022-10-31T02:10:58.392Z,402.00
2022-10-31T02:11:28.415Z,402.00
2022-10-31T02:11:58.441Z,402.00
2022-10-31T02:12:28.469Z,403.00
2022-10-31T02:12:58.758Z,403.00
2022-10-31T02:13:28.510Z,404.00
2022-10-31T02:13:58.524Z,404.00
2022-10-31T02:14:28.550Z,405.00
2022-10-31T02:14:58.567Z,405.00
2022-10-31T02:15:28.591Z,404.00
2022-10-31T02:15:58.600Z,403.00
2022-10-31T02:16:28.728Z,403.00
2022-10-31T02:16:58.818Z,402.00
2022-10-31T02:17:28.933Z,403.00
2022-10-31T02:17:59.460Z,403.00
2022-10-31T02:18:29.136Z,404.00
2022-10-31T02:18:59.249Z,404.00
2022-10-31T02:19:29.364Z,404.00
2022-10-31T02:19:59.479Z,402.00
2022-10-31T02:20:29.586Z,400.00
2022-10-31T02:20:59.702Z,399.00
2022-10-31T02:21:29.817Z,400.00
2022-10-31T02:21:59.932Z,400.00
2022-10-31T02:22:30.056Z,401.00
2022-10-31T02:23:00.041Z,398.00
2022-10-31T02:23:30.157Z,395.00
2022-10-31T02:24:00.267Z,394.00
2022-10-31T02:24:30.378Z,394.00
2022-10-31T02:25:00.493Z,395.00
2022-10-31T02:25:30.605Z,395.00
2022-10-31T02:26:00.608Z,396.00
2022-10-31T02:26:30.636Z,395.00
2022-10-31T02:27:00.652Z,395.00
2022-10-31T02:27:30.695Z,394.00
2022-10-31T02:28:01.174Z,393.00
2022-10-31T02:28:30.815Z,393.00
2022-10-31T02:29:00.842Z,391.00
2022-10-31T02:29:30.868Z,394.00
2022-10-31T02:30:00.898Z,395.00
2022-10-31T02:30:30.921Z,396.00
2022-10-31T02:31:00.938Z,396.00
2022-10-31T02:31:30.984Z,396.00
2022-10-31T02:32:00.986Z,396.00
2022-10-31T02:32:31.026Z,396.00
2022-10-31T02:33:01.218Z,396.00
2022-10-31T02:33:31.133Z,395.00
2022-10-31T02:34:01.161Z,394.00
2022-10-31T02:34:31.185Z,394.00
2022-10-31T02:35:01.210Z,394.00
2022-10-31T02:35:31.239Z,393.00
2022-10-31T02:36:01.264Z,393.00
2022-10-31T02:36:31.291Z,393.00
2022-10-31T02:37:01.305Z,392.00
2022-10-31T02:37:31.353Z,392.00
2022-10-31T02:38:01.370Z,393.00
2022-10-31T02:38:31.395Z,393.00
2022-10-31T02:39:01.432Z,396.00
2022-10-31T02:39:31.470Z,396.00
2022-10-31T02:40:01.504Z,396.00
2022-10-31T02:40:31.521Z,396.00
2022-10-31T02:41:01.550Z,398.00
2022-10-31T02:41:31.576Z,397.00
2022-10-31T02:42:01.604Z,397.00
2022-10-31T02:42:31.645Z,395.00
2022-10-31T02:43:02.269Z,394.00
2022-10-31T02:43:31.711Z,393.00
2022-10-31T02:44:01.740Z,394.00
2022-10-31T02:44:31.759Z,395.00
2022-10-31T02:45:01.787Z,396.00
2022-10-31T02:45:31.810Z,397.00
2022-10-31T02:46:01.834Z,397.00
2022-10-31T02:46:31.858Z,397.00
2022-10-31T02:47:01.918Z,398.00
2022-10-31T02:47:31.929Z,398.00
2022-10-31T02:48:02.234Z,401.00
2022-10-31T02:48:32.074Z,401.00
2022-10-31T02:49:02.093Z,400.00
2022-10-31T02:49:32.123Z,400.00
2022-10-31T02:50:02.139Z,399.00
2022-10-31T02:50:32.167Z,398.00
2022-10-31T02:51:02.194Z,399.00
2022-10-31T02:51:32.209Z,398.00
2022-10-31T02:52:02.234Z,398.00
2022-10-31T02:52:32.274Z,399.00
2022-10-31T02:53:02.301Z,401.00
2022-10-31T02:53:32.327Z,400.00
2022-10-31T02:54:02.363Z,400.00
2022-10-31T02:54:32.391Z,401.00
2022-10-31T02:55:02.413Z,400.00
2022-10-31T02:55:32.438Z,401.00
2022-10-31T02:56:02.459Z,399.00
2022-10-31T02:56:32.489Z,399.00
2022-10-31T02:57:02.509Z,399.00
2022-10-31T02:57:32.555Z,397.00
2022-10-31T02:58:03.016Z,396.00
2022-10-31T02:58:32.673Z,398.00
2022-10-31T02:59:02.703Z,396.00
2022-10-31T02:59:32.717Z,395.00
2022-10-31T03:00:02.742Z,396.00
2022-10-31T03:00:32.770Z,397.00
2022-10-31T03:01:02.841Z,396.00
2022-10-31T03:01:32.971Z,398.00
2022-10-31T03:02:03.085Z,397.00
2022-10-31T03:02:33.060Z,399.00
2022-10-31T03:03:03.340Z,398.00
2022-10-31T03:03:33.053Z,398.00
2022-10-31T03:04:03.082Z,397.00
2022-10-31T03:04:33.102Z,399.00
2022-10-31T03:05:03.133Z,398.00
2022-10-31T03:05:33.151Z,398.00
2022-10-31T03:06:03.182Z,397.00
2022-10-31T03:06:33.213Z,397.00
2022-10-31T03:07:03.234Z,397.00
2022-10-31T03:07:33.276Z,401.00
2022-10-31T03:08:03.301Z,403.00
2022-10-31T03:08:33.328Z,402.00
2022-10-31T03:09:03.351Z,403.00
2022-10-31T03:09:33.375Z,401.00
2022-10-31T03:10:03.405Z,403.00
2022-10-31T03:10:33.431Z,403.00
2022-10-31T03:11:03.452Z,405.00
2022-10-31T03:11:33.475Z,408.00
2022-10-31T03:12:03.504Z,409.00
2022-10-31T03:12:33.538Z,408.00
2022-10-31T03:13:03.988Z,406.00
2022-10-31T03:13:33.578Z,405.00
2022-10-31T03:14:03.595Z,405.00
2022-10-31T03:14:33.631Z,405.00
2022-10-31T03:15:03.650Z,402.00
2022-10-31T03:15:33.669Z,402.00
2022-10-31T03:16:03.673Z,401.00
2022-10-31T03:16:33.782Z,401.00
2022-10-31T03:17:03.891Z,402.00
2022-10-31T03:17:34.007Z,402.00
2022-10-31T03:18:04.478Z,402.00
2022-10-31T03:18:34.113Z,399.00
2022-10-31T03:19:04.221Z,402.00
2022-10-31T03:19:34.336Z,400.00
2022-10-31T03:20:04.449Z,402.00
2022-10-31T03:20:34.559Z,402.00
2022-10-31T03:21:04.673Z,402.00
2022-10-31T03:21:34.790Z,401.00
2022-10-31T03:22:04.902Z,402.00
2022-10-31T03:22:35.021Z,400.00
2022-10-31T03:23:05.128Z,399.00
2022-10-31T03:23:35.241Z,399.00
2022-10-31T03:24:05.365Z,401.00
2022-10-31T03:24:35.463Z,402.00
2022-10-31T03:25:05.576Z,402.00
2022-10-31T03:25:35.685Z,400.00
2022-10-31T03:26:05.694Z,400.00
2022-10-31T03:26:35.727Z,400.00
2022-10-31T03:27:05.739Z,398.00
2022-10-31T03:27:35.768Z,399.00
2022-10-31T03:28:06.254Z,399.00
2022-10-31T03:28:35.861Z,399.00
2022-10-31T03:29:05.888Z,402.00
2022-10-31T03:29:35.911Z,402.00
2022-10-31T03:30:05.939Z,401.00
2022-10-31T03:30:35.962Z,401.00
2022-10-31T03:31:07.363Z,401.00
2022-10-31T03:31:36.097Z,402.00
2022-10-31T03:32:06.119Z,405.00
2022-10-31T03:32:36.148Z,405.00
2022-10-31T03:33:06.168Z,403.00
2022-10-31T03:33:36.219Z,403.00
2022-10-31T03:34:06.221Z,403.00
2022-10-31T03:34:36.242Z,404.00
2022-10-31T03:35:06.266Z,404.00
2022-10-31T03:35:36.301Z,404.00
2022-10-31T03:36:06.329Z,404.00
2022-10-31T03:36:36.353Z,405.00
2022-10-31T03:37:06.375Z,406.00
2022-10-31T03:37:36.406Z,406.00
2022-10-31T03:38:07.866Z,406.00
2022-10-31T03:38:36.553Z,405.00
2022-10-31T03:39:06.570Z,405.00
2022-10-31T03:39:36.594Z,403.00
2022-10-31T03:40:06.616Z,405.00
2022-10-31T03:40:36.643Z,405.00
2022-10-31T03:41:06.685Z,403.00
2022-10-31T03:41:36.683Z,401.00
2022-10-31T03:42:06.709Z,400.00
2022-10-31T03:42:36.727Z,401.00
2022-10-31T03:43:06.770Z,400.00
2022-10-31T03:43:36.797Z,400.00
2022-10-31T03:44:06.815Z,399.00
2022-10-31T03:44:36.843Z,399.00
2022-10-31T03:45:06.864Z,398.00
2022-10-31T03:45:36.892Z,398.00
2022-10-31T03:46:06.916Z,398.00
2022-10-31T03:46:36.938Z,398.00
2022-10-31T03:47:06.960Z,399.00
2022-10-31T03:47:36.988Z,401.00
2022-10-31T03:48:07.012Z,399.00
2022-10-31T03:48:37.032Z,400.00
2022-10-31T03:49:07.082Z,400.00
2022-10-31T03:49:37.080Z,400.00
2022-10-31T03:50:07.105Z,399.00
2022-10-31T03:50:37.131Z,399.00
2022-10-31T03:51:07.149Z,399.00
2022-10-31T03:51:37.180Z,399.00
2022-10-31T03:52:07.195Z,399.00
2022-10-31T03:52:37.221Z,399.00
2022-10-31T03:53:07.245Z,398.00
2022-10-31T03:53:37.264Z,399.00
2022-10-31T03:54:07.299Z,400.00
2022-10-31T03:54:37.313Z,399.00
2022-10-31T03:55:07.343Z,399.00
2022-10-31T03:55:37.372Z,399.00
2022-10-31T03:56:07.391Z,400.00
2022-10-31T03:56:37.417Z,400.00
2022-10-31T03:57:07.438Z,398.00
2022-10-31T03:57:37.466Z,400.00
2022-10-31T03:58:07.573Z,402.00
2022-10-31T03:58:37.572Z,404.00
2022-10-31T03:59:07.602Z,403.00
2022-10-31T03:59:37.662Z,403.00
2022-10-31T04:00:07.687Z,403.00
2022-10-31T04:00:37.696Z,404.00
2022-10-31T04:01:07.809Z,402.00
2022-10-31T04:01:37.902Z,404.00
2022-10-31T04:02:08.000Z,404.00
2022-10-31T04:02:38.148Z,404.00
2022-10-31T04:03:08.012Z,405.00
2022-10-31T04:03:38.045Z,404.00
2022-10-31T04:04:08.084Z,404.00
2022-10-31T04:04:38.132Z,406.00
2022-10-31T04:05:08.130Z,406.00
2022-10-31T04:05:38.151Z,406.00
2022-10-31T04:06:08.208Z,407.00
2022-10-31T04:06:38.193Z,405.00
2022-10-31T04:07:08.222Z,404.00
2022-10-31T04:07:38.243Z,402.00
2022-10-31T04:08:08.263Z,403.00
2022-10-31T04:08:38.288Z,403.00
2022-10-31T04:09:08.304Z,404.00
2022-10-31T04:09:38.329Z,403.00
2022-10-31T04:10:08.348Z,404.00
2022-10-31T04:10:38.369Z,403.00
2022-10-31T04:11:08.397Z,403.00
2022-10-31T04:11:38.420Z,403.00
2022-10-31T04:12:08.440Z,404.00
2022-10-31T04:12:38.459Z,403.00
2022-10-31T04:13:08.600Z,403.00
2022-10-31T04:13:38.516Z,404.00
2022-10-31T04:14:08.541Z,405.00
2022-10-31T04:14:38.560Z,407.00
2022-10-31T04:15:08.582Z,405.00
2022-10-31T04:15:38.605Z,404.00
2022-10-31T04:16:11.386Z,403.00
2022-10-31T04:16:38.727Z,401.00
2022-10-31T04:17:08.840Z,401.00
2022-10-31T04:17:38.955Z,400.00
2022-10-31T04:18:09.067Z,400.00
2022-10-31T04:18:39.177Z,400.00
2022-10-31T04:19:09.293Z,401.00
2022-10-31T04:19:39.405Z,401.00
2022-10-31T04:20:09.535Z,402.00
2022-10-31T04:20:39.621Z,402.00
2022-10-31T04:21:09.737Z,401.00
2022-10-31T04:21:39.846Z,401.00
2022-10-31T04:22:09.976Z,400.00
2022-10-31T04:22:39.959Z,402.00
2022-10-31T04:23:13.831Z,402.00
2022-10-31T04:23:40.166Z,402.00
2022-10-31T04:24:10.274Z,404.00
2022-10-31T04:24:40.393Z,404.00
2022-10-31T04:25:10.497Z,404.00
2022-10-31T04:25:40.613Z,402.00
2022-10-31T04:26:10.632Z,401.00
2022-10-31T04:26:40.651Z,399.00
2022-10-31T04:27:10.679Z,398.00
2022-10-31T04:27:40.702Z,397.00
2022-10-31T04:28:10.807Z,397.00
2022-10-31T04:28:40.726Z,395.00
2022-10-31T04:29:10.757Z,396.00
2022-10-31T04:29:40.775Z,399.00
2022-10-31T04:30:10.798Z,399.00
2022-10-31T04:30:40.823Z,398.00
2022-10-31T04:31:10.848Z,399.00
2022-10-31T04:31:40.870Z,398.00
2022-10-31T04:32:10.895Z,398.00
2022-10-31T04:32:40.920Z,399.00
2022-10-31T04:33:10.950Z,401.00
2022-10-31T04:33:40.968Z,401.00
2022-10-31T04:34:10.993Z,403.00
2022-10-31T04:34:41.013Z,404.00
2022-10-31T04:35:11.067Z,403.00
2022-10-31T04:35:41.066Z,400.00
2022-10-31T04:36:11.089Z,401.00
2022-10-31T04:36:41.118Z,401.00
2022-10-31T04:37:11.137Z,399.00
2022-10-31T04:37:41.167Z,399.00
2022-10-31T04:38:11.192Z,399.00
2022-10-31T04:38:41.212Z,399.00
2022-10-31T04:39:11.240Z,398.00
2022-10-31T04:39:41.263Z,400.00
2022-10-31T04:40:11.288Z,401.00
2022-10-31T04:40:41.313Z,401.00
2022-10-31T04:41:11.337Z,401.00
2022-10-31T04:41:41.359Z,401.00
2022-10-31T04:42:11.381Z,400.00
2022-10-31T04:42:41.409Z,398.00
2022-10-31T04:43:11.517Z,398.00
2022-10-31T04:43:41.434Z,399.00
2022-10-31T04:44:11.462Z,398.00
2022-10-31T04:44:41.481Z,399.00
2022-10-31T04:45:15.424Z,400.00
2022-10-31T04:45:41.546Z,401.00
2022-10-31T04:46:11.581Z,403.00
2022-10-31T04:46:41.628Z,403.00
2022-10-31T04:47:11.643Z,402.00
2022-10-31T04:47:41.672Z,402.00
2022-10-31T04:48:11.694Z,402.00
2022-10-31T04:48:41.719Z,401.00
2022-10-31T04:49:11.744Z,401.00
2022-10-31T04:49:41.766Z,400.00
2022-10-31T04:50:11.789Z,401.00
2022-10-31T04:50:41.833Z,399.00
2022-10-31T04:51:11.843Z,399.00
2022-10-31T04:51:41.866Z,401.00
2022-10-31T04:52:11.891Z,403.00
2022-10-31T04:52:41.916Z,401.00
2022-10-31T04:53:11.940Z,401.00
2022-10-31T04:53:41.967Z,402.00
2022-10-31T04:54:11.991Z,404.00
2022-10-31T04:54:42.018Z,404.00
2022-10-31T04:55:12.046Z,403.00
2022-10-31T04:55:42.072Z,404.00
2022-10-31T04:56:12.097Z,401.00
2022-10-31T04:56:42.121Z,408.00
2022-10-31T04:57:12.149Z,410.00
2022-10-31T04:57:42.181Z,409.00
2022-10-31T04:58:12.289Z,408.00
2022-10-31T04:58:42.218Z,408.00
2022-10-31T04:59:12.240Z,409.00
2022-10-31T04:59:42.265Z,407.00
2022-10-31T05:00:12.283Z,407.00
2022-10-31T05:00:42.430Z,408.00
2022-10-31T05:01:12.495Z,408.00
2022-10-31T05:01:42.601Z,406.00
2022-10-31T05:02:12.643Z,407.00
2022-10-31T05:02:44.481Z,409.00
2022-10-31T05:03:12.570Z,410.00
2022-10-31T05:03:42.598Z,412.00
2022-10-31T05:04:12.617Z,412.00
2022-10-31T05:04:42.642Z,414.00
2022-10-31T05:05:12.672Z,414.00
2022-10-31T05:05:42.689Z,414.00
2022-10-31T05:06:12.737Z,416.00
2022-10-31T05:06:42.735Z,423.00
2022-10-31T05:07:12.765Z,426.00
2022-10-31T05:07:42.800Z,427.00
2022-10-31T05:08:12.827Z,427.00
2022-10-31T05:08:42.850Z,427.00
2022-10-31T05:09:12.875Z,426.00
2022-10-31T05:09:42.900Z,425.00
2022-10-31T05:10:12.925Z,425.00
2022-10-31T05:10:42.951Z,428.00
2022-10-31T05:11:12.972Z,427.00
2022-10-31T05:11:42.999Z,426.00
2022-10-31T05:12:13.021Z,426.00
2022-10-31T05:12:43.035Z,426.00
2022-10-31T05:13:13.166Z,425.00
2022-10-31T05:13:43.066Z,423.00
2022-10-31T05:14:13.100Z,424.00
2022-10-31T05:14:46.111Z,425.00
2022-10-31T05:15:13.164Z,425.00
2022-10-31T05:15:43.185Z,424.00
2022-10-31T05:16:13.306Z,423.00
2022-10-31T05:16:43.407Z,423.00
2022-10-31T05:17:13.529Z,422.00
2022-10-31T05:17:43.643Z,421.00
2022-10-31T05:18:13.636Z,420.00
2022-10-31T05:18:43.743Z,419.00
2022-10-31T05:19:13.860Z,418.00
2022-10-31T05:19:43.855Z,419.00
2022-10-31T05:20:13.973Z,420.00
2022-10-31T05:20:44.091Z,418.00
2022-10-31T05:21:14.195Z,419.00
2022-10-31T05:21:44.333Z,419.00
2022-10-31T05:22:14.437Z,419.00
2022-10-31T05:22:44.421Z,420.00
2022-10-31T05:23:14.537Z,421.00
2022-10-31T05:23:47.647Z,420.00
2022-10-31T05:24:14.702Z,423.00
2022-10-31T05:24:44.811Z,425.00
2022-10-31T05:25:14.925Z,424.00
2022-10-31T05:25:45.042Z,424.00
2022-10-31T05:26:15.064Z,418.00
2022-10-31T05:26:45.088Z,425.00
2022-10-31T05:27:15.118Z,428.00
2022-10-31T05:27:45.149Z,428.00
2022-10-31T05:28:15.175Z,431.00
2022-10-31T05:28:45.219Z,434.00
2022-10-31T05:29:15.277Z,439.00
2022-10-31T05:29:45.300Z,440.00
2022-10-31T05:30:15.330Z,436.00
2022-10-31T05:30:45.351Z,434.00
2022-10-31T05:31:15.383Z,431.00
2022-10-31T05:31:45.417Z,427.00
2022-10-31T05:32:15.438Z,425.00
2022-10-31T05:32:45.464Z,427.00
2022-10-31T05:33:15.488Z,427.00
2022-10-31T05:33:45.519Z,426.00
2022-10-31T05:34:15.543Z,426.00
2022-10-31T05:34:45.568Z,426.00
2022-10-31T05:35:15.605Z,425.00
2022-10-31T05:35:45.631Z,425.00
2022-10-31T05:36:15.656Z,425.00
2022-10-31T05:36:45.776Z,425.00
2022-10-31T05:37:15.697Z,427.00
2022-10-31T05:37:45.699Z,427.00
2022-10-31T05:38:15.720Z,425.00
2022-10-31T05:38:45.744Z,425.00
2022-10-31T05:39:15.779Z,422.00
2022-10-31T05:39:45.794Z,421.00
2022-10-31T05:40:15.818Z,420.00
2022-10-31T05:40:45.840Z,420.00
2022-10-31T05:41:15.867Z,421.00
2022-10-31T05:41:45.904Z,420.00
2022-10-31T05:42:15.927Z,421.00
2022-10-31T05:42:45.943Z,420.00
2022-10-31T05:43:15.975Z,422.00
2022-10-31T05:43:45.996Z,422.00
2022-10-31T05:44:16.019Z,419.00
2022-10-31T05:44:46.040Z,425.00
2022-10-31T05:45:16.061Z,427.00
2022-10-31T05:45:46.087Z,432.00
2022-10-31T05:46:16.119Z,432.00
2022-10-31T05:46:46.153Z,433.00
2022-10-31T05:47:16.175Z,438.00
2022-10-31T05:47:46.196Z,439.00
2022-10-31T05:48:16.223Z,439.00
2022-10-31T05:48:46.244Z,439.00
2022-10-31T05:49:16.274Z,440.00
2022-10-31T05:49:46.295Z,437.00
2022-10-31T05:50:16.319Z,436.00
2022-10-31T05:50:46.340Z,437.00
2022-10-31T05:51:16.366Z,436.00
2022-10-31T05:51:46.390Z,435.00
2022-10-31T05:52:16.417Z,434.00
2022-10-31T05:52:46.473Z,433.00
2022-10-31T05:53:16.487Z,433.00
2022-10-31T05:53:46.514Z,433.00
2022-10-31T05:54:16.562Z,432.00
2022-10-31T05:54:46.560Z,435.00
2022-10-31T05:55:16.589Z,434.00
2022-10-31T05:55:46.606Z,435.00
2022-10-31T05:56:16.632Z,435.00
2022-10-31T05:56:46.658Z,433.00
2022-10-31T05:57:16.683Z,433.00
2022-10-31T05:57:46.707Z,434.00
2022-10-31T05:58:16.729Z,435.00
2022-10-31T05:58:46.754Z,437.00
2022-10-31T05:59:16.782Z,436.00
2022-10-31T05:59:51.016Z,436.00
2022-10-31T06:00:16.863Z,436.00
2022-10-31T06:00:46.887Z,434.00
2022-10-31T06:01:16.952Z,434.00
2022-10-31T06:01:47.100Z,435.00
2022-10-31T06:02:17.024Z,434.00
2022-10-31T06:02:47.051Z,435.00
2022-10-31T06:03:17.076Z,433.00
2022-10-31T06:03:47.172Z,431.00
2022-10-31T06:04:17.330Z,431.00
2022-10-31T06:04:47.431Z,431.00
2022-10-31T06:05:17.362Z,431.00
2022-10-31T06:05:50.732Z,430.00
2022-10-31T06:06:17.426Z,429.00
2022-10-31T06:06:47.460Z,428.00
2022-10-31T06:07:17.479Z,428.00
2022-10-31T06:07:47.506Z,430.00
2022-10-31T06:08:17.553Z,428.00
2022-10-31T06:08:47.557Z,428.00
2022-10-31T06:09:17.582Z,427.00
2022-10-31T06:09:47.605Z,428.00
2022-10-31T06:10:17.623Z,429.00
2022-10-31T06:10:47.651Z,429.00
2022-10-31T06:11:17.676Z,427.00
2022-10-31T06:11:47.707Z,428.00
2022-10-31T06:12:17.723Z,429.00
2022-10-31T06:12:47.749Z,431.00
2022-10-31T06:13:17.773Z,431.00
2022-10-31T06:13:47.800Z,432.00
2022-10-31T06:14:17.826Z,432.00
2022-10-31T06:14:47.844Z,433.00
2022-10-31T06:15:23.417Z,432.00